EISG/SXL METAR and TAF weather

Enter ICAO airport designator
Station Type Date Time Source
EISG METAR 2019/09/20 17:30 UTC NOAA

EISG 201730Z 13011G22KT 100V170 CAVOK 19/10 Q1012


Station Type Date Time Source
EISG Decoded METAR 2019/09/20 17:30 UTC NOAA

Station name not available
Sep 20, 2019 - 01:30 PM EDT / 2019.09.20 1730 UTC
Wind: from the SE (130 degrees) at 13 MPH (11 KT) gusting to 25 MPH (22 KT) (direction variable):0
Visibility: greater than 7 mile(s):0
Temperature: 66 F (19 C)
Dew Point: 50 F (10 C)
Relative Humidity: 55%
Pressure (altimeter): 29.88 in. Hg (1012 hPa)
ob: EISG 201730Z 13011G22KT 100V170 CAVOK 19/10 Q1012
cycle: 17

Station Type Date Time Source
EISG TAF UTC NOAA

Error!

Example: see airport list